sensor_id;sensor_type;location;lat;lon;timestamp;P1;durP1;ratioP1;P2;durP2;ratioP2
77384;SDS011;66443;49.122;8.346;2024-01-27T00:01:18;0.40;;;0.40;;
77384;SDS011;66443;49.122;8.346;2024-01-27T00:03:45;0.30;;;0.30;;
77384;SDS011;66443;49.122;8.346;2024-01-27T00:06:11;0.70;;;0.70;;
77384;SDS011;66443;49.122;8.346;2024-01-27T00:08:36;0.57;;;0.57;;
77384;SDS011;66443;49.122;8.346;2024-01-27T00:11:01;0.40;;;0.40;;
77384;SDS011;66443;49.122;8.346;2024-01-27T00:13:26;0.40;;;0.40;;
77384;SDS011;66443;49.122;8.346;2024-01-27T00:15:52;0.30;;;0.30;;
77384;SDS011;66443;49.122;8.346;2024-01-27T00:18:19;0.30;;;0.30;;
77384;SDS011;66443;49.122;8.346;2024-01-27T00:20:44;0.37;;;0.37;;
77384;SDS011;66443;49.122;8.346;2024-01-27T00:23:09;0.20;;;0.20;;
77384;SDS011;66443;49.122;8.346;2024-01-27T00:25:35;4.77;;;1.23;;
77384;SDS011;66443;49.122;8.346;2024-01-27T00:28:00;0.60;;;0.60;;
77384;SDS011;66443;49.122;8.346;2024-01-27T00:30:25;0.67;;;0.67;;
77384;SDS011;66443;49.122;8.346;2024-01-27T00:32:51;3.20;;;1.33;;
77384;SDS011;66443;49.122;8.346;2024-01-27T00:35:16;0.50;;;0.50;;
77384;SDS011;66443;49.122;8.346;2024-01-27T00:37:41;1.60;;;1.60;;
77384;SDS011;66443;49.122;8.346;2024-01-27T00:40:07;0.40;;;0.40;;
77384;SDS011;66443;49.122;8.346;2024-01-27T00:42:33;0.30;;;0.30;;
77384;SDS011;66443;49.122;8.346;2024-01-27T00:44:58;0.40;;;0.40;;
77384;SDS011;66443;49.122;8.346;2024-01-27T00:47:23;0.80;;;0.80;;
77384;SDS011;66443;49.122;8.346;2024-01-27T00:49:48;0.60;;;0.60;;
77384;SDS011;66443;49.122;8.346;2024-01-27T00:52:13;0.63;;;0.63;;
77384;SDS011;66443;49.122;8.346;2024-01-27T00:54:39;0.20;;;0.20;;
77384;SDS011;66443;49.122;8.346;2024-01-27T00:57:04;2.20;;;2.10;;
77384;SDS011;66443;49.122;8.346;2024-01-27T00:59:29;0.30;;;0.30;;
77384;SDS011;66443;49.122;8.346;2024-01-27T01:01:54;0.40;;;0.40;;
77384;SDS011;66443;49.122;8.346;2024-01-27T01:04:20;0.40;;;0.40;;
77384;SDS011;66443;49.122;8.346;2024-01-27T01:06:46;1.57;;;1.50;;
77384;SDS011;66443;49.122;8.346;2024-01-27T01:09:11;0.87;;;0.87;;
77384;SDS011;66443;49.122;8.346;2024-01-27T01:11:36;0.80;;;0.80;;
77384;SDS011;66443;49.122;8.346;2024-01-27T01:14:01;0.30;;;0.30;;
77384;SDS011;66443;49.122;8.346;2024-01-27T01:16:26;0.37;;;0.37;;
77384;SDS011;66443;49.122;8.346;2024-01-27T01:18:51;1.07;;;1.07;;
77384;SDS011;66443;49.122;8.346;2024-01-27T01:21:17;0.63;;;0.63;;
77384;SDS011;66443;49.122;8.346;2024-01-27T01:23:42;0.40;;;0.40;;
77384;SDS011;66443;49.122;8.346;2024-01-27T01:26:07;0.40;;;0.40;;
77384;SDS011;66443;49.122;8.346;2024-01-27T01:28:33;0.40;;;0.40;;
77384;SDS011;66443;49.122;8.346;2024-01-27T01:30:58;0.40;;;0.40;;
77384;SDS011;66443;49.122;8.346;2024-01-27T01:33:23;0.30;;;0.30;;
77384;SDS011;66443;49.122;8.346;2024-01-27T01:35:48;0.40;;;0.40;;
77384;SDS011;66443;49.122;8.346;2024-01-27T01:38:13;0.60;;;0.60;;
77384;SDS011;66443;49.122;8.346;2024-01-27T01:40:39;0.30;;;0.30;;
77384;SDS011;66443;49.122;8.346;2024-01-27T01:43:09;0.40;;;0.40;;
77384;SDS011;66443;49.122;8.346;2024-01-27T01:45:34;0.43;;;0.43;;
77384;SDS011;66443;49.122;8.346;2024-01-27T01:47:59;5.00;;;1.57;;
77384;SDS011;66443;49.122;8.346;2024-01-27T01:50:24;0.70;;;0.70;;
77384;SDS011;66443;49.122;8.346;2024-01-27T01:52:50;0.50;;;0.50;;
77384;SDS011;66443;49.122;8.346;2024-01-27T01:55:17;0.33;;;0.33;;
77384;SDS011;66443;49.122;8.346;2024-01-27T01:57:43;0.60;;;0.60;;
77384;SDS011;66443;49.122;8.346;2024-01-27T02:00:08;0.40;;;0.40;;
77384;SDS011;66443;49.122;8.346;2024-01-27T02:02:33;0.30;;;0.30;;
77384;SDS011;66443;49.122;8.346;2024-01-27T02:04:59;0.40;;;0.40;;
77384;SDS011;66443;49.122;8.346;2024-01-27T02:07:24;0.33;;;0.33;;
77384;SDS011;66443;49.122;8.346;2024-01-27T02:09:50;0.47;;;0.47;;
77384;SDS011;66443;49.122;8.346;2024-01-27T02:12:15;0.43;;;0.43;;
77384;SDS011;66443;49.122;8.346;2024-01-27T02:14:40;1.50;;;1.40;;
77384;SDS011;66443;49.122;8.346;2024-01-27T02:17:05;0.70;;;0.70;;
77384;SDS011;66443;49.122;8.346;2024-01-27T02:19:31;0.77;;;0.77;;
77384;SDS011;66443;49.122;8.346;2024-01-27T02:21:56;0.40;;;0.40;;
77384;SDS011;66443;49.122;8.346;2024-01-27T02:24:21;1.63;;;1.63;;
77384;SDS011;66443;49.122;8.346;2024-01-27T02:26:46;0.53;;;0.53;;
77384;SDS011;66443;49.122;8.346;2024-01-27T02:29:11;1.27;;;1.27;;
77384;SDS011;66443;49.122;8.346;2024-01-27T02:31:37;1.33;;;1.23;;
77384;SDS011;66443;49.122;8.346;2024-01-27T02:34:02;1.10;;;1.10;;
77384;SDS011;66443;49.122;8.346;2024-01-27T02:36:27;0.40;;;0.40;;
77384;SDS011;66443;49.122;8.346;2024-01-27T02:38:52;0.30;;;0.30;;
77384;SDS011;66443;49.122;8.346;2024-01-27T02:41:18;1.57;;;1.57;;
77384;SDS011;66443;49.122;8.346;2024-01-27T02:43:43;0.40;;;0.40;;
77384;SDS011;66443;49.122;8.346;2024-01-27T02:46:10;0.67;;;0.67;;
77384;SDS011;66443;49.122;8.346;2024-01-27T02:48:36;0.83;;;0.83;;
77384;SDS011;66443;49.122;8.346;2024-01-27T02:51:04;0.53;;;0.53;;
77384;SDS011;66443;49.122;8.346;2024-01-27T02:53:30;0.33;;;0.33;;
77384;SDS011;66443;49.122;8.346;2024-01-27T02:55:55;0.37;;;0.37;;
77384;SDS011;66443;49.122;8.346;2024-01-27T02:58:20;1.17;;;1.17;;
77384;SDS011;66443;49.122;8.346;2024-01-27T03:00:46;0.50;;;0.50;;
77384;SDS011;66443;49.122;8.346;2024-01-27T03:03:11;0.60;;;0.60;;
77384;SDS011;66443;49.122;8.346;2024-01-27T03:05:36;0.50;;;0.50;;
77384;SDS011;66443;49.122;8.346;2024-01-27T03:08:01;0.50;;;0.50;;
77384;SDS011;66443;49.122;8.346;2024-01-27T03:10:26;0.30;;;0.30;;
77384;SDS011;66443;49.122;8.346;2024-01-27T03:12:52;0.80;;;0.80;;
77384;SDS011;66443;49.122;8.346;2024-01-27T03:15:17;0.43;;;0.43;;
77384;SDS011;66443;49.122;8.346;2024-01-27T03:17:42;34.07;;;2.37;;
77384;SDS011;66443;49.122;8.346;2024-01-27T03:20:08;0.47;;;0.47;;
77384;SDS011;66443;49.122;8.346;2024-01-27T03:22:33;0.50;;;0.50;;
77384;SDS011;66443;49.122;8.346;2024-01-27T03:24:59;0.40;;;0.40;;
77384;SDS011;66443;49.122;8.346;2024-01-27T03:27:24;0.60;;;0.60;;
77384;SDS011;66443;49.122;8.346;2024-01-27T03:29:49;1.07;;;1.07;;
77384;SDS011;66443;49.122;8.346;2024-01-27T03:32:14;0.50;;;0.50;;
77384;SDS011;66443;49.122;8.346;2024-01-27T03:34:46;1.27;;;1.27;;
77384;SDS011;66443;49.122;8.346;2024-01-27T03:37:11;2.67;;;2.37;;
77384;SDS011;66443;49.122;8.346;2024-01-27T03:39:36;1.33;;;1.33;;
77384;SDS011;66443;49.122;8.346;2024-01-27T03:42:01;0.90;;;0.90;;
77384;SDS011;66443;49.122;8.346;2024-01-27T03:44:26;0.60;;;0.60;;
77384;SDS011;66443;49.122;8.346;2024-01-27T03:46:52;0.40;;;0.40;;
77384;SDS011;66443;49.122;8.346;2024-01-27T03:49:17;1.33;;;1.33;;
77384;SDS011;66443;49.122;8.346;2024-01-27T03:51:42;1.17;;;1.17;;
77384;SDS011;66443;49.122;8.346;2024-01-27T03:54:07;0.40;;;0.40;;
77384;SDS011;66443;49.122;8.346;2024-01-27T03:56:32;1.80;;;1.03;;
77384;SDS011;66443;49.122;8.346;2024-01-27T03:58:58;0.50;;;0.50;;
77384;SDS011;66443;49.122;8.346;2024-01-27T04:01:23;0.93;;;0.93;;
77384;SDS011;66443;49.122;8.346;2024-01-27T04:03:48;0.57;;;0.57;;
77384;SDS011;66443;49.122;8.346;2024-01-27T04:06:13;0.60;;;0.60;;
77384;SDS011;66443;49.122;8.346;2024-01-27T04:08:38;1.07;;;1.07;;
77384;SDS011;66443;49.122;8.346;2024-01-27T04:11:04;0.40;;;0.40;;
77384;SDS011;66443;49.122;8.346;2024-01-27T04:13:29;0.93;;;0.93;;
77384;SDS011;66443;49.122;8.346;2024-01-27T04:15:55;0.87;;;0.87;;
77384;SDS011;66443;49.122;8.346;2024-01-27T04:18:22;0.40;;;0.40;;
77384;SDS011;66443;49.122;8.346;2024-01-27T04:20:47;0.70;;;0.70;;
77384;SDS011;66443;49.122;8.346;2024-01-27T04:23:13;1.20;;;1.20;;
77384;SDS011;66443;49.122;8.346;2024-01-27T04:25:38;0.77;;;0.77;;
77384;SDS011;66443;49.122;8.346;2024-01-27T04:28:04;1.57;;;1.47;;
77384;SDS011;66443;49.122;8.346;2024-01-27T04:30:29;0.80;;;0.80;;
77384;SDS011;66443;49.122;8.346;2024-01-27T04:32:54;0.40;;;0.40;;
77384;SDS011;66443;49.122;8.346;2024-01-27T04:35:19;0.87;;;0.87;;
77384;SDS011;66443;49.122;8.346;2024-01-27T04:37:44;0.80;;;0.80;;
77384;SDS011;66443;49.122;8.346;2024-01-27T04:40:10;0.40;;;0.40;;
77384;SDS011;66443;49.122;8.346;2024-01-27T04:42:37;0.40;;;0.40;;
77384;SDS011;66443;49.122;8.346;2024-01-27T04:45:02;0.97;;;0.97;;
77384;SDS011;66443;49.122;8.346;2024-01-27T04:47:28;0.40;;;0.40;;
77384;SDS011;66443;49.122;8.346;2024-01-27T04:49:53;0.70;;;0.70;;
77384;SDS011;66443;49.122;8.346;2024-01-27T04:52:18;0.40;;;0.40;;
77384;SDS011;66443;49.122;8.346;2024-01-27T04:54:44;0.40;;;0.40;;
77384;SDS011;66443;49.122;8.346;2024-01-27T04:57:09;0.30;;;0.30;;
77384;SDS011;66443;49.122;8.346;2024-01-27T04:59:35;0.50;;;0.50;;
77384;SDS011;66443;49.122;8.346;2024-01-27T05:02:00;0.50;;;0.50;;
77384;SDS011;66443;49.122;8.346;2024-01-27T05:04:25;0.50;;;0.50;;
77384;SDS011;66443;49.122;8.346;2024-01-27T05:06:51;0.50;;;0.50;;
77384;SDS011;66443;49.122;8.346;2024-01-27T05:09:17;0.47;;;0.47;;
77384;SDS011;66443;49.122;8.346;2024-01-27T05:11:42;0.40;;;0.40;;
77384;SDS011;66443;49.122;8.346;2024-01-27T05:14:10;0.30;;;0.30;;
77384;SDS011;66443;49.122;8.346;2024-01-27T05:16:36;0.50;;;0.50;;
77384;SDS011;66443;49.122;8.346;2024-01-27T05:19:01;0.40;;;0.40;;
77384;SDS011;66443;49.122;8.346;2024-01-27T05:21:26;0.40;;;0.40;;
77384;SDS011;66443;49.122;8.346;2024-01-27T05:23:54;0.57;;;0.57;;
77384;SDS011;66443;49.122;8.346;2024-01-27T05:26:20;0.50;;;0.50;;
77384;SDS011;66443;49.122;8.346;2024-01-27T05:28:45;0.40;;;0.40;;
77384;SDS011;66443;49.122;8.346;2024-01-27T05:31:12;0.50;;;0.50;;
77384;SDS011;66443;49.122;8.346;2024-01-27T05:33:38;0.40;;;0.40;;
77384;SDS011;66443;49.122;8.346;2024-01-27T05:36:06;0.90;;;0.90;;
77384;SDS011;66443;49.122;8.346;2024-01-27T05:38:32;0.80;;;0.80;;
77384;SDS011;66443;49.122;8.346;2024-01-27T05:41:00;0.40;;;0.40;;
77384;SDS011;66443;49.122;8.346;2024-01-27T05:43:28;0.83;;;0.83;;
77384;SDS011;66443;49.122;8.346;2024-01-27T05:45:54;0.30;;;0.30;;
77384;SDS011;66443;49.122;8.346;2024-01-27T05:48:19;1.23;;;1.13;;
77384;SDS011;66443;49.122;8.346;2024-01-27T05:50:54;0.50;;;0.50;;
77384;SDS011;66443;49.122;8.346;2024-01-27T05:53:28;0.93;;;0.93;;
77384;SDS011;66443;49.122;8.346;2024-01-27T05:55:55;1.27;;;1.27;;
77384;SDS011;66443;49.122;8.346;2024-01-27T05:58:24;0.40;;;0.40;;
77384;SDS011;66443;49.122;8.346;2024-01-27T06:00:49;0.60;;;0.60;;
77384;SDS011;66443;49.122;8.346;2024-01-27T06:03:18;0.70;;;0.70;;
77384;SDS011;66443;49.122;8.346;2024-01-27T06:05:48;0.57;;;0.57;;
77384;SDS011;66443;49.122;8.346;2024-01-27T06:08:26;2.03;;;1.43;;
77384;SDS011;66443;49.122;8.346;2024-01-27T06:10:57;0.77;;;0.77;;
77384;SDS011;66443;49.122;8.346;2024-01-27T06:13:32;2.23;;;2.13;;
77384;SDS011;66443;49.122;8.346;2024-01-27T06:16:08;0.97;;;0.97;;
77384;SDS011;66443;49.122;8.346;2024-01-27T06:18:51;0.50;;;0.50;;
77384;SDS011;66443;49.122;8.346;2024-01-27T06:21:27;0.50;;;0.50;;
77384;SDS011;66443;49.122;8.346;2024-01-27T06:24:01;0.57;;;0.57;;
77384;SDS011;66443;49.122;8.346;2024-01-27T06:26:29;0.40;;;0.40;;
77384;SDS011;66443;49.122;8.346;2024-01-27T06:31:53;0.30;;;0.30;;
77384;SDS011;66443;49.122;8.346;2024-01-27T06:34:34;0.60;;;0.60;;
77384;SDS011;66443;49.122;8.346;2024-01-27T06:37:05;0.73;;;0.73;;
77384;SDS011;66443;49.122;8.346;2024-01-27T06:39:54;0.73;;;0.73;;
77384;SDS011;66443;49.122;8.346;2024-01-27T06:42:24;2.30;;;1.70;;
77384;SDS011;66443;49.122;8.346;2024-01-27T06:44:59;1.70;;;1.70;;
77384;SDS011;66443;49.122;8.346;2024-01-27T06:47:27;13.83;;;3.60;;
77384;SDS011;66443;49.122;8.346;2024-01-27T06:50:03;5.33;;;3.23;;
77384;SDS011;66443;49.122;8.346;2024-01-27T06:52:35;2.63;;;2.53;;
77384;SDS011;66443;49.122;8.346;2024-01-27T06:55:03;0.70;;;0.70;;
77384;SDS011;66443;49.122;8.346;2024-01-27T06:57:32;0.30;;;0.30;;
77384;SDS011;66443;49.122;8.346;2024-01-27T07:00:16;2.00;;;1.00;;
77384;SDS011;66443;49.122;8.346;2024-01-27T07:02:42;0.73;;;0.73;;
77384;SDS011;66443;49.122;8.346;2024-01-27T07:05:12;2.50;;;2.40;;
77384;SDS011;66443;49.122;8.346;2024-01-27T07:07:41;0.33;;;0.33;;
77384;SDS011;66443;49.122;8.346;2024-01-27T07:10:18;1.13;;;1.13;;
77384;SDS011;66443;49.122;8.346;2024-01-27T07:12:51;0.30;;;0.30;;
77384;SDS011;66443;49.122;8.346;2024-01-27T07:15:23;0.60;;;0.60;;
77384;SDS011;66443;49.122;8.346;2024-01-27T07:17:56;0.50;;;0.50;;
77384;SDS011;66443;49.122;8.346;2024-01-27T07:20:30;0.40;;;0.40;;
77384;SDS011;66443;49.122;8.346;2024-01-27T07:22:58;0.30;;;0.30;;
77384;SDS011;66443;49.122;8.346;2024-01-27T07:25:29;2.87;;;2.43;;
77384;SDS011;66443;49.122;8.346;2024-01-27T07:27:57;0.80;;;0.80;;
77384;SDS011;66443;49.122;8.346;2024-01-27T07:30:27;0.80;;;0.80;;
77384;SDS011;66443;49.122;8.346;2024-01-27T07:33:04;1.20;;;1.20;;
77384;SDS011;66443;49.122;8.346;2024-01-27T07:35:29;2.07;;;1.30;;
77384;SDS011;66443;49.122;8.346;2024-01-27T07:38:00;0.30;;;0.30;;
77384;SDS011;66443;49.122;8.346;2024-01-27T07:40:30;0.40;;;0.40;;
77384;SDS011;66443;49.122;8.346;2024-01-27T07:43:07;1.30;;;1.30;;
77384;SDS011;66443;49.122;8.346;2024-01-27T07:45:49;0.70;;;0.70;;
77384;SDS011;66443;49.122;8.346;2024-01-27T07:48:25;0.40;;;0.40;;
77384;SDS011;66443;49.122;8.346;2024-01-27T07:50:57;0.60;;;0.60;;
77384;SDS011;66443;49.122;8.346;2024-01-27T07:53:23;0.87;;;0.87;;
77384;SDS011;66443;49.122;8.346;2024-01-27T07:55:51;1.33;;;1.33;;
77384;SDS011;66443;49.122;8.346;2024-01-27T07:58:21;2.40;;;2.30;;
77384;SDS011;66443;49.122;8.346;2024-01-27T08:00:49;3.37;;;3.10;;
77384;SDS011;66443;49.122;8.346;2024-01-27T08:03:17;0.70;;;0.70;;
77384;SDS011;66443;49.122;8.346;2024-01-27T08:05:42;0.93;;;0.93;;
77384;SDS011;66443;49.122;8.346;2024-01-27T08:08:07;1.30;;;1.23;;
77384;SDS011;66443;49.122;8.346;2024-01-27T08:10:35;2.17;;;2.13;;
77384;SDS011;66443;49.122;8.346;2024-01-27T08:13:15;1.60;;;1.60;;
77384;SDS011;66443;49.122;8.346;2024-01-27T08:15:43;0.80;;;0.80;;
77384;SDS011;66443;49.122;8.346;2024-01-27T08:18:10;0.50;;;0.50;;
77384;SDS011;66443;49.122;8.346;2024-01-27T08:20:39;0.87;;;0.87;;
77384;SDS011;66443;49.122;8.346;2024-01-27T08:23:04;0.83;;;0.83;;
77384;SDS011;66443;49.122;8.346;2024-01-27T08:25:32;0.97;;;0.97;;
77384;SDS011;66443;49.122;8.346;2024-01-27T08:28:03;1.60;;;1.60;;
77384;SDS011;66443;49.122;8.346;2024-01-27T08:30:32;2.37;;;2.27;;
77384;SDS011;66443;49.122;8.346;2024-01-27T08:32:57;0.97;;;0.97;;
77384;SDS011;66443;49.122;8.346;2024-01-27T08:35:22;0.73;;;0.73;;
77384;SDS011;66443;49.122;8.346;2024-01-27T08:37:48;18.80;;;1.57;;
77384;SDS011;66443;49.122;8.346;2024-01-27T08:40:13;1.87;;;1.87;;
77384;SDS011;66443;49.122;8.346;2024-01-27T08:42:39;1.47;;;1.47;;
77384;SDS011;66443;49.122;8.346;2024-01-27T08:45:04;2.43;;;2.17;;
77384;SDS011;66443;49.122;8.346;2024-01-27T08:47:31;0.60;;;0.60;;
77384;SDS011;66443;49.122;8.346;2024-01-27T08:49:56;1.53;;;1.53;;
77384;SDS011;66443;49.122;8.346;2024-01-27T08:52:21;0.50;;;0.50;;
77384;SDS011;66443;49.122;8.346;2024-01-27T09:03:49;0.60;;;0.60;;
77384;SDS011;66443;49.122;8.346;2024-01-27T09:17:37;0.97;;;0.97;;
77384;SDS011;66443;49.122;8.346;2024-01-27T09:29:56;0.67;;;0.67;;
77384;SDS011;66443;49.122;8.346;2024-01-27T09:32:29;0.90;;;0.90;;
77384;SDS011;66443;49.122;8.346;2024-01-27T09:35:05;0.73;;;0.73;;
77384;SDS011;66443;49.122;8.346;2024-01-27T09:37:45;1.00;;;1.00;;
77384;SDS011;66443;49.122;8.346;2024-01-27T09:40:11;0.50;;;0.50;;
77384;SDS011;66443;49.122;8.346;2024-01-27T09:42:36;0.70;;;0.70;;
77384;SDS011;66443;49.122;8.346;2024-01-27T09:45:06;0.87;;;0.87;;
77384;SDS011;66443;49.122;8.346;2024-01-27T09:47:36;0.50;;;0.50;;
77384;SDS011;66443;49.122;8.346;2024-01-27T09:50:01;0.50;;;0.50;;
77384;SDS011;66443;49.122;8.346;2024-01-27T09:52:27;0.47;;;0.47;;
77384;SDS011;66443;49.122;8.346;2024-01-27T09:54:52;0.50;;;0.50;;
77384;SDS011;66443;49.122;8.346;2024-01-27T09:57:18;0.53;;;0.53;;
77384;SDS011;66443;49.122;8.346;2024-01-27T09:59:45;1.63;;;1.57;;
77384;SDS011;66443;49.122;8.346;2024-01-27T10:02:14;0.73;;;0.73;;
77384;SDS011;66443;49.122;8.346;2024-01-27T10:04:49;0.80;;;0.80;;
77384;SDS011;66443;49.122;8.346;2024-01-27T10:07:21;0.40;;;0.40;;
77384;SDS011;66443;49.122;8.346;2024-01-27T10:16:21;0.40;;;0.40;;
77384;SDS011;66443;49.122;8.346;2024-01-27T10:28:19;0.57;;;0.57;;
77384;SDS011;66443;49.122;8.346;2024-01-27T10:30:52;1.67;;;1.57;;
77384;SDS011;66443;49.122;8.346;2024-01-27T10:39:32;0.53;;;0.53;;
77384;SDS011;66443;49.122;8.346;2024-01-27T10:41:57;0.30;;;0.30;;
77384;SDS011;66443;49.122;8.346;2024-01-27T10:44:28;0.60;;;0.60;;
77384;SDS011;66443;49.122;8.346;2024-01-27T10:46:54;0.77;;;0.77;;
77384;SDS011;66443;49.122;8.346;2024-01-27T10:49:24;0.50;;;0.50;;
77384;SDS011;66443;49.122;8.346;2024-01-27T10:51:56;0.67;;;0.67;;
77384;SDS011;66443;49.122;8.346;2024-01-27T10:57:21;0.30;;;0.30;;
77384;SDS011;66443;49.122;8.346;2024-01-27T10:59:51;0.47;;;0.47;;
77384;SDS011;66443;49.122;8.346;2024-01-27T11:02:18;0.70;;;0.70;;
77384;SDS011;66443;49.122;8.346;2024-01-27T11:04:43;0.47;;;0.47;;
77384;SDS011;66443;49.122;8.346;2024-01-27T11:07:12;0.40;;;0.40;;
77384;SDS011;66443;49.122;8.346;2024-01-27T11:09:53;0.90;;;0.90;;
77384;SDS011;66443;49.122;8.346;2024-01-27T11:12:30;0.50;;;0.50;;
77384;SDS011;66443;49.122;8.346;2024-01-27T12:56:39;1.90;;;1.80;;
77384;SDS011;66443;49.122;8.346;2024-01-27T12:59:20;6.33;;;1.27;;
77384;SDS011;66443;49.122;8.346;2024-01-27T13:01:56;0.60;;;0.60;;
77384;SDS011;66443;49.122;8.346;2024-01-27T13:04:26;1.90;;;1.80;;
77384;SDS011;66443;49.122;8.346;2024-01-27T13:06:57;0.40;;;0.40;;
77384;SDS011;66443;49.122;8.346;2024-01-27T13:09:30;0.63;;;0.63;;
77384;SDS011;66443;49.122;8.346;2024-01-27T13:12:09;0.93;;;0.93;;
77384;SDS011;66443;49.122;8.346;2024-01-27T13:14:43;1.07;;;1.07;;
77384;SDS011;66443;49.122;8.346;2024-01-27T13:17:38;0.70;;;0.70;;
77384;SDS011;66443;49.122;8.346;2024-01-27T13:23:36;0.40;;;0.40;;
77384;SDS011;66443;49.122;8.346;2024-01-27T13:26:23;0.40;;;0.40;;
77384;SDS011;66443;49.122;8.346;2024-01-27T13:28:56;0.40;;;0.40;;
77384;SDS011;66443;49.122;8.346;2024-01-27T13:31:45;0.60;;;0.60;;
77384;SDS011;66443;49.122;8.346;2024-01-27T13:36:59;0.70;;;0.70;;
77384;SDS011;66443;49.122;8.346;2024-01-27T13:39:27;1.23;;;0.90;;
77384;SDS011;66443;49.122;8.346;2024-01-27T13:41:53;6.37;;;3.63;;
77384;SDS011;66443;49.122;8.346;2024-01-27T13:44:18;4.20;;;2.90;;
77384;SDS011;66443;49.122;8.346;2024-01-27T13:46:43;7.23;;;3.00;;
77384;SDS011;66443;49.122;8.346;2024-01-27T13:49:08;5.00;;;2.80;;
77384;SDS011;66443;49.122;8.346;2024-01-27T13:51:36;5.47;;;2.90;;
77384;SDS011;66443;49.122;8.346;2024-01-27T13:54:02;4.13;;;2.90;;
77384;SDS011;66443;49.122;8.346;2024-01-27T13:56:35;4.67;;;2.77;;
77384;SDS011;66443;49.122;8.346;2024-01-27T13:59:10;4.60;;;2.53;;
77384;SDS011;66443;49.122;8.346;2024-01-27T14:01:50;5.23;;;2.33;;
77384;SDS011;66443;49.122;8.346;2024-01-27T14:07:07;4.43;;;2.90;;
77384;SDS011;66443;49.122;8.346;2024-01-27T14:12:29;3.80;;;2.40;;
77384;SDS011;66443;49.122;8.346;2024-01-27T14:15:06;3.40;;;3.10;;
77384;SDS011;66443;49.122;8.346;2024-01-27T14:17:42;4.20;;;2.43;;
77384;SDS011;66443;49.122;8.346;2024-01-27T14:20:23;4.97;;;2.60;;
77384;SDS011;66443;49.122;8.346;2024-01-27T14:22:54;5.73;;;2.97;;
77384;SDS011;66443;49.122;8.346;2024-01-27T14:25:34;7.57;;;2.90;;
77384;SDS011;66443;49.122;8.346;2024-01-27T14:28:03;6.10;;;2.97;;
77384;SDS011;66443;49.122;8.346;2024-01-27T14:30:34;5.23;;;2.90;;
77384;SDS011;66443;49.122;8.346;2024-01-27T14:33:06;4.43;;;3.07;;
77384;SDS011;66443;49.122;8.346;2024-01-27T14:35:31;7.50;;;3.20;;
77384;SDS011;66443;49.122;8.346;2024-01-27T14:37:58;7.03;;;4.03;;
77384;SDS011;66443;49.122;8.346;2024-01-27T14:40:26;3.97;;;2.80;;
77384;SDS011;66443;49.122;8.346;2024-01-27T14:42:57;6.93;;;2.97;;
77384;SDS011;66443;49.122;8.346;2024-01-27T14:45:23;4.60;;;2.70;;
77384;SDS011;66443;49.122;8.346;2024-01-27T14:47:51;5.17;;;2.80;;
77384;SDS011;66443;49.122;8.346;2024-01-27T14:50:17;4.80;;;2.63;;
77384;SDS011;66443;49.122;8.346;2024-01-27T14:52:42;5.70;;;2.80;;
77384;SDS011;66443;49.122;8.346;2024-01-27T14:55:08;3.27;;;2.47;;
77384;SDS011;66443;49.122;8.346;2024-01-27T14:57:38;4.87;;;2.57;;
77384;SDS011;66443;49.122;8.346;2024-01-27T15:00:04;4.80;;;2.60;;
77384;SDS011;66443;49.122;8.346;2024-01-27T15:02:32;4.00;;;2.33;;
77384;SDS011;66443;49.122;8.346;2024-01-27T15:05:13;4.47;;;2.83;;
77384;SDS011;66443;49.122;8.346;2024-01-27T15:07:41;4.10;;;2.20;;
77384;SDS011;66443;49.122;8.346;2024-01-27T15:10:07;3.53;;;2.20;;
77384;SDS011;66443;49.122;8.346;2024-01-27T15:12:38;3.07;;;2.10;;
77384;SDS011;66443;49.122;8.346;2024-01-27T15:15:08;2.27;;;1.87;;
77384;SDS011;66443;49.122;8.346;2024-01-27T15:17:41;4.20;;;1.97;;
77384;SDS011;66443;49.122;8.346;2024-01-27T15:20:06;5.07;;;3.20;;
77384;SDS011;66443;49.122;8.346;2024-01-27T15:22:32;4.40;;;2.33;;
77384;SDS011;66443;49.122;8.346;2024-01-27T15:25:02;5.93;;;3.20;;
77384;SDS011;66443;49.122;8.346;2024-01-27T15:27:30;4.77;;;2.40;;
77384;SDS011;66443;49.122;8.346;2024-01-27T15:29:55;6.80;;;3.47;;
77384;SDS011;66443;49.122;8.346;2024-01-27T15:32:28;3.37;;;2.40;;
77384;SDS011;66443;49.122;8.346;2024-01-27T15:35:11;3.23;;;2.80;;
77384;SDS011;66443;49.122;8.346;2024-01-27T15:37:40;4.07;;;2.50;;
77384;SDS011;66443;49.122;8.346;2024-01-27T15:40:06;5.43;;;2.93;;
77384;SDS011;66443;49.122;8.346;2024-01-27T15:42:34;5.07;;;2.40;;
77384;SDS011;66443;49.122;8.346;2024-01-27T15:45:00;3.50;;;2.63;;
77384;SDS011;66443;49.122;8.346;2024-01-27T15:47:28;5.03;;;2.43;;
77384;SDS011;66443;49.122;8.346;2024-01-27T15:49:55;7.17;;;3.00;;
77384;SDS011;66443;49.122;8.346;2024-01-27T15:52:31;3.33;;;2.60;;
77384;SDS011;66443;49.122;8.346;2024-01-27T15:54:56;3.90;;;2.40;;
77384;SDS011;66443;49.122;8.346;2024-01-27T15:57:22;5.37;;;2.70;;
77384;SDS011;66443;49.122;8.346;2024-01-27T15:59:47;5.37;;;2.70;;
77384;SDS011;66443;49.122;8.346;2024-01-27T16:02:13;2.57;;;2.37;;
77384;SDS011;66443;49.122;8.346;2024-01-27T16:04:42;6.50;;;3.07;;
77384;SDS011;66443;49.122;8.346;2024-01-27T16:07:07;4.70;;;2.87;;
77384;SDS011;66443;49.122;8.346;2024-01-27T16:09:41;14.07;;;8.97;;
77384;SDS011;66443;49.122;8.346;2024-01-27T16:12:34;8.37;;;4.50;;
77384;SDS011;66443;49.122;8.346;2024-01-27T16:15:12;7.53;;;6.03;;
77384;SDS011;66443;49.122;8.346;2024-01-27T16:17:38;10.93;;;7.83;;
77384;SDS011;66443;49.122;8.346;2024-01-27T16:20:15;15.53;;;11.33;;
77384;SDS011;66443;49.122;8.346;2024-01-27T16:22:51;14.43;;;10.80;;
77384;SDS011;66443;49.122;8.346;2024-01-27T16:25:16;7.37;;;5.53;;
77384;SDS011;66443;49.122;8.346;2024-01-27T16:27:44;11.50;;;4.03;;
77384;SDS011;66443;49.122;8.346;2024-01-27T16:30:10;16.53;;;3.67;;
77384;SDS011;66443;49.122;8.346;2024-01-27T16:32:35;4.93;;;3.20;;
77384;SDS011;66443;49.122;8.346;2024-01-27T16:35:01;22.30;;;10.03;;
77384;SDS011;66443;49.122;8.346;2024-01-27T16:37:28;17.87;;;9.03;;
77384;SDS011;66443;49.122;8.346;2024-01-27T16:39:59;11.07;;;5.57;;
77384;SDS011;66443;49.122;8.346;2024-01-27T16:42:32;7.10;;;4.70;;
77384;SDS011;66443;49.122;8.346;2024-01-27T16:45:10;4.13;;;3.70;;
77384;SDS011;66443;49.122;8.346;2024-01-27T16:47:41;6.33;;;3.80;;
77384;SDS011;66443;49.122;8.346;2024-01-27T16:50:11;5.03;;;3.67;;
77384;SDS011;66443;49.122;8.346;2024-01-27T16:52:39;7.07;;;3.17;;
77384;SDS011;66443;49.122;8.346;2024-01-27T16:55:10;5.77;;;2.80;;
77384;SDS011;66443;49.122;8.346;2024-01-27T16:57:38;5.17;;;3.50;;
77384;SDS011;66443;49.122;8.346;2024-01-27T17:00:12;5.13;;;3.07;;
77384;SDS011;66443;49.122;8.346;2024-01-27T17:02:46;5.23;;;3.47;;
77384;SDS011;66443;49.122;8.346;2024-01-27T17:05:13;6.27;;;3.40;;
77384;SDS011;66443;49.122;8.346;2024-01-27T17:07:39;3.10;;;2.73;;
77384;SDS011;66443;49.122;8.346;2024-01-27T17:10:04;7.63;;;3.77;;
77384;SDS011;66443;49.122;8.346;2024-01-27T17:12:33;4.60;;;3.30;;
77384;SDS011;66443;49.122;8.346;2024-01-27T17:15:04;5.63;;;3.63;;
77384;SDS011;66443;49.122;8.346;2024-01-27T17:17:35;6.67;;;3.57;;
77384;SDS011;66443;49.122;8.346;2024-01-27T17:20:03;4.20;;;3.87;;
77384;SDS011;66443;49.122;8.346;2024-01-27T17:22:46;5.70;;;3.63;;
77384;SDS011;66443;49.122;8.346;2024-01-27T17:25:14;5.20;;;4.03;;
77384;SDS011;66443;49.122;8.346;2024-01-27T17:27:42;13.63;;;7.60;;
77384;SDS011;66443;49.122;8.346;2024-01-27T17:30:07;7.73;;;5.40;;
77384;SDS011;66443;49.122;8.346;2024-01-27T17:32:45;6.07;;;4.43;;
77384;SDS011;66443;49.122;8.346;2024-01-27T17:35:22;9.43;;;5.63;;
77384;SDS011;66443;49.122;8.346;2024-01-27T17:37:47;7.37;;;4.27;;
77384;SDS011;66443;49.122;8.346;2024-01-27T17:40:19;19.67;;;9.03;;
77384;SDS011;66443;49.122;8.346;2024-01-27T17:42:55;6.47;;;4.27;;
77384;SDS011;66443;49.122;8.346;2024-01-27T17:45:28;11.57;;;5.90;;
77384;SDS011;66443;49.122;8.346;2024-01-27T17:47:57;5.17;;;4.37;;